sensor_id;sensor_type;location;lat;lon;timestamp;pressure;altitude;pressure_sealevel;temperature;humidity
62928;BME280;51070;52.236;-0.892;2023-04-23T00:01:27;99256.77;;;9.89;86.87
62928;BME280;51070;52.236;-0.892;2023-04-23T00:03:56;99254.69;;;9.87;87.21
62928;BME280;51070;52.236;-0.892;2023-04-23T00:06:22;99247.25;;;9.85;87.69
62928;BME280;51070;52.236;-0.892;2023-04-23T00:08:52;99241.89;;;9.86;87.62
62928;BME280;51070;52.236;-0.892;2023-04-23T00:11:18;99238.63;;;9.86;88.29
62928;BME280;51070;52.236;-0.892;2023-04-23T00:13:45;99235.55;;;9.87;88.63
62928;BME280;51070;52.236;-0.892;2023-04-23T00:16:12;99232.95;;;9.87;88.98
62928;BME280;51070;52.236;-0.892;2023-04-23T00:18:38;99229.16;;;9.87;89.46
62928;BME280;51070;52.236;-0.892;2023-04-23T00:21:03;99226.40;;;9.87;90.15
62928;BME280;51070;52.236;-0.892;2023-04-23T00:23:29;99226.92;;;9.87;90.15
62928;BME280;51070;52.236;-0.892;2023-04-23T00:25:55;99225.89;;;9.88;90.65
62928;BME280;51070;52.236;-0.892;2023-04-23T00:28:20;99225.17;;;9.86;91.39
62928;BME280;51070;52.236;-0.892;2023-04-23T00:30:45;99221.38;;;9.86;91.37
62928;BME280;51070;52.236;-0.892;2023-04-23T00:33:11;99218.81;;;9.88;91.66
62928;BME280;51070;52.236;-0.892;2023-04-23T00:35:36;99215.52;;;9.89;91.60
62928;BME280;51070;52.236;-0.892;2023-04-23T00:38:01;99208.48;;;9.91;91.80
62928;BME280;51070;52.236;-0.892;2023-04-23T00:40:30;99205.21;;;9.91;92.11
62928;BME280;51070;52.236;-0.892;2023-04-23T00:42:56;99200.39;;;9.92;92.59
62928;BME280;51070;52.236;-0.892;2023-04-23T00:45:23;99204.34;;;9.91;92.79
62928;BME280;51070;52.236;-0.892;2023-04-23T00:47:48;99199.48;;;9.90;93.80
62928;BME280;51070;52.236;-0.892;2023-04-23T00:50:14;99198.27;;;9.89;94.10
62928;BME280;51070;52.236;-0.892;2023-04-23T00:52:40;99197.77;;;9.89;94.36
62928;BME280;51070;52.236;-0.892;2023-04-23T00:55:06;99194.30;;;9.89;94.41
62928;BME280;51070;52.236;-0.892;2023-04-23T00:57:33;99195.38;;;9.92;94.80
62928;BME280;51070;52.236;-0.892;2023-04-23T00:59:59;99191.07;;;9.93;94.75
62928;BME280;51070;52.236;-0.892;2023-04-23T01:02:26;99192.11;;;9.94;94.89
62928;BME280;51070;52.236;-0.892;2023-04-23T01:04:54;99187.46;;;9.95;95.46
62928;BME280;51070;52.236;-0.892;2023-04-23T01:07:20;99183.50;;;9.95;95.54
62928;BME280;51070;52.236;-0.892;2023-04-23T01:09:48;99184.54;;;9.95;95.64
62928;BME280;51070;52.236;-0.892;2023-04-23T01:12:15;99184.38;;;9.96;96.52
62928;BME280;51070;52.236;-0.892;2023-04-23T01:14:42;99176.77;;;9.96;96.56
62928;BME280;51070;52.236;-0.892;2023-04-23T01:17:08;99172.65;;;9.96;96.77
62928;BME280;51070;52.236;-0.892;2023-04-23T01:19:34;99172.14;;;9.97;96.78
62928;BME280;51070;52.236;-0.892;2023-04-23T01:22:01;99168.54;;;9.98;96.88
62928;BME280;51070;52.236;-0.892;2023-04-23T01:24:28;99166.29;;;9.98;97.45
62928;BME280;51070;52.236;-0.892;2023-04-23T01:26:54;99165.77;;;9.98;97.49
62928;BME280;51070;52.236;-0.892;2023-04-23T01:29:20;99164.74;;;10.00;97.64
62928;BME280;51070;52.236;-0.892;2023-04-23T01:31:46;99163.72;;;10.01;98.09
62928;BME280;51070;52.236;-0.892;2023-04-23T01:34:12;99164.26;;;10.03;98.29
62928;BME280;51070;52.236;-0.892;2023-04-23T01:36:39;99163.58;;;10.04;98.19
62928;BME280;51070;52.236;-0.892;2023-04-23T01:39:06;99156.51;;;10.05;98.64
62928;BME280;51070;52.236;-0.892;2023-04-23T01:41:32;99159.44;;;10.05;98.18
62928;BME280;51070;52.236;-0.892;2023-04-23T01:43:58;99158.59;;;10.06;98.35
62928;BME280;51070;52.236;-0.892;2023-04-23T01:46:24;99160.85;;;10.08;98.73
62928;BME280;51070;52.236;-0.892;2023-04-23T01:48:50;99161.03;;;10.08;99.15
62928;BME280;51070;52.236;-0.892;2023-04-23T01:51:16;99153.27;;;10.08;98.73
62928;BME280;51070;52.236;-0.892;2023-04-23T01:53:41;99152.23;;;10.08;98.83
62928;BME280;51070;52.236;-0.892;2023-04-23T01:56:07;99146.70;;;10.09;98.67
62928;BME280;51070;52.236;-0.892;2023-04-23T01:58:34;99144.48;;;10.11;98.57
62928;BME280;51070;52.236;-0.892;2023-04-23T02:00:59;99146.21;;;10.11;98.97
62928;BME280;51070;52.236;-0.892;2023-04-23T02:03:25;99143.13;;;10.13;98.73
62928;BME280;51070;52.236;-0.892;2023-04-23T02:05:52;99139.51;;;10.13;98.77
62928;BME280;51070;52.236;-0.892;2023-04-23T02:08:19;99136.75;;;10.15;98.77
62928;BME280;51070;52.236;-0.892;2023-04-23T02:10:44;99131.56;;;10.15;98.83
62928;BME280;51070;52.236;-0.892;2023-04-23T02:13:10;99132.43;;;10.15;99.14
62928;BME280;51070;52.236;-0.892;2023-04-23T02:15:35;99130.91;;;10.16;99.13
62928;BME280;51070;52.236;-0.892;2023-04-23T02:18:03;99126.95;;;10.17;99.08
62928;BME280;51070;52.236;-0.892;2023-04-23T02:20:28;99123.16;;;10.17;99.43
62928;BME280;51070;52.236;-0.892;2023-04-23T02:22:54;99119.37;;;10.18;99.41
62928;BME280;51070;52.236;-0.892;2023-04-23T02:25:21;99116.45;;;10.18;99.79
62928;BME280;51070;52.236;-0.892;2023-04-23T02:27:47;99112.15;;;10.20;99.93
62928;BME280;51070;52.236;-0.892;2023-04-23T02:30:13;99110.60;;;10.22;99.76
62928;BME280;51070;52.236;-0.892;2023-04-23T02:32:39;99106.46;;;10.23;99.99
62928;BME280;51070;52.236;-0.892;2023-04-23T02:35:06;99103.36;;;10.23;100.00
62928;BME280;51070;52.236;-0.892;2023-04-23T02:37:34;99102.33;;;10.23;100.00
62928;BME280;51070;52.236;-0.892;2023-04-23T02:39:59;99104.07;;;10.24;100.00
62928;BME280;51070;52.236;-0.892;2023-04-23T02:42:25;99102.17;;;10.24;100.00
62928;BME280;51070;52.236;-0.892;2023-04-23T02:44:51;99096.64;;;10.24;100.00
62928;BME280;51070;52.236;-0.892;2023-04-23T02:47:16;99100.10;;;10.25;100.00
62928;BME280;51070;52.236;-0.892;2023-04-23T02:49:41;99101.13;;;10.26;100.00
62928;BME280;51070;52.236;-0.892;2023-04-23T02:52:07;99094.91;;;10.25;100.00
62928;BME280;51070;52.236;-0.892;2023-04-23T02:54:32;99099.23;;;10.25;100.00
62928;BME280;51070;52.236;-0.892;2023-04-23T02:56:58;99094.56;;;10.23;100.00
62928;BME280;51070;52.236;-0.892;2023-04-23T02:59:24;99095.91;;;10.21;100.00
62928;BME280;51070;52.236;-0.892;2023-04-23T03:01:49;99097.13;;;10.19;100.00
62928;BME280;51070;52.236;-0.892;2023-04-23T03:04:16;99095.21;;;10.18;100.00
62928;BME280;51070;52.236;-0.892;2023-04-23T03:06:42;99093.83;;;10.18;100.00
62928;BME280;51070;52.236;-0.892;2023-04-23T03:09:07;99089.70;;;10.19;100.00
62928;BME280;51070;52.236;-0.892;2023-04-23T03:11:33;99093.83;;;10.18;100.00
62928;BME280;51070;52.236;-0.892;2023-04-23T03:13:58;99090.53;;;10.17;100.00
62928;BME280;51070;52.236;-0.892;2023-04-23T03:16:26;99089.64;;;10.16;100.00
62928;BME280;51070;52.236;-0.892;2023-04-23T03:18:52;99085.66;;;10.15;100.00
62928;BME280;51070;52.236;-0.892;2023-04-23T03:21:17;99088.92;;;10.13;100.00
62928;BME280;51070;52.236;-0.892;2023-04-23T03:23:43;99087.02;;;10.12;100.00
62928;BME280;51070;52.236;-0.892;2023-04-23T03:26:08;99084.75;;;10.11;100.00
62928;BME280;51070;52.236;-0.892;2023-04-23T03:28:33;99085.60;;;10.09;100.00
62928;BME280;51070;52.236;-0.892;2023-04-23T03:30:59;99085.45;;;10.08;100.00
62928;BME280;51070;52.236;-0.892;2023-04-23T03:33:24;99084.74;;;10.09;100.00
62928;BME280;51070;52.236;-0.892;2023-04-23T03:35:50;99082.34;;;10.09;100.00
62928;BME280;51070;52.236;-0.892;2023-04-23T03:38:15;99081.29;;;10.10;100.00
62928;BME280;51070;52.236;-0.892;2023-04-23T03:40:41;99079.05;;;10.10;100.00
62928;BME280;51070;52.236;-0.892;2023-04-23T03:43:06;99076.82;;;10.11;100.00
62928;BME280;51070;52.236;-0.892;2023-04-23T03:45:31;99075.27;;;10.12;100.00
62928;BME280;51070;52.236;-0.892;2023-04-23T03:47:57;99077.34;;;10.12;100.00
62928;BME280;51070;52.236;-0.892;2023-04-23T03:50:22;99075.60;;;10.11;100.00
62928;BME280;51070;52.236;-0.892;2023-04-23T03:52:48;99077.69;;;10.11;100.00
62928;BME280;51070;52.236;-0.892;2023-04-23T03:55:14;99077.33;;;10.11;100.00
62928;BME280;51070;52.236;-0.892;2023-04-23T03:57:39;99078.37;;;10.11;100.00
62928;BME280;51070;52.236;-0.892;2023-04-23T04:00:05;99078.36;;;10.09;100.00
62928;BME280;51070;52.236;-0.892;2023-04-23T04:02:38;99074.55;;;10.09;100.00
62928;BME280;51070;52.236;-0.892;2023-04-23T04:05:04;99072.15;;;10.08;100.00
62928;BME280;51070;52.236;-0.892;2023-04-23T04:07:30;99072.99;;;10.06;100.00
62928;BME280;51070;52.236;-0.892;2023-04-23T04:09:56;99073.48;;;10.06;100.00
62928;BME280;51070;52.236;-0.892;2023-04-23T04:12:21;99068.14;;;10.04;100.00
62928;BME280;51070;52.236;-0.892;2023-04-23T04:14:47;99069.52;;;10.04;100.00
62928;BME280;51070;52.236;-0.892;2023-04-23T04:17:12;99063.83;;;10.03;100.00
62928;BME280;51070;52.236;-0.892;2023-04-23T04:19:41;99062.27;;;10.03;100.00
62928;BME280;51070;52.236;-0.892;2023-04-23T04:22:07;99061.05;;;10.03;100.00
62928;BME280;51070;52.236;-0.892;2023-04-23T04:24:33;99060.02;;;10.02;100.00
62928;BME280;51070;52.236;-0.892;2023-04-23T04:27:00;99057.77;;;10.02;100.00
62928;BME280;51070;52.236;-0.892;2023-04-23T04:29:26;99059.33;;;10.03;100.00
62928;BME280;51070;52.236;-0.892;2023-04-23T04:31:53;99056.56;;;10.02;100.00
62928;BME280;51070;52.236;-0.892;2023-04-23T04:34:18;99053.81;;;10.03;100.00
62928;BME280;51070;52.236;-0.892;2023-04-23T04:36:44;99055.20;;;10.03;100.00
62928;BME280;51070;52.236;-0.892;2023-04-23T04:39:10;99055.19;;;10.03;100.00
62928;BME280;51070;52.236;-0.892;2023-04-23T04:41:37;99052.91;;;9.99;100.00
62928;BME280;51070;52.236;-0.892;2023-04-23T04:44:03;99056.01;;;9.99;100.00
62928;BME280;51070;52.236;-0.892;2023-04-23T04:46:28;99053.08;;;9.98;100.00
62928;BME280;51070;52.236;-0.892;2023-04-23T04:48:56;99054.29;;;9.99;100.00
62928;BME280;51070;52.236;-0.892;2023-04-23T04:51:21;99055.67;;;10.00;100.00
62928;BME280;51070;52.236;-0.892;2023-04-23T04:53:47;99057.23;;;10.00;100.00
62928;BME280;51070;52.236;-0.892;2023-04-23T04:56:12;99056.52;;;9.99;100.00
62928;BME280;51070;52.236;-0.892;2023-04-23T04:58:38;99058.09;;;10.00;100.00
62928;BME280;51070;52.236;-0.892;2023-04-23T05:01:04;99055.34;;;10.01;100.00
62928;BME280;51070;52.236;-0.892;2023-04-23T05:03:30;99055.52;;;10.01;100.00
62928;BME280;51070;52.236;-0.892;2023-04-23T05:05:55;99054.31;;;10.01;100.00
62928;BME280;51070;52.236;-0.892;2023-04-23T05:08:23;99055.36;;;10.02;100.00
62928;BME280;51070;52.236;-0.892;2023-04-23T05:10:49;99060.03;;;10.04;100.00
62928;BME280;51070;52.236;-0.892;2023-04-23T05:13:15;99057.08;;;10.04;100.00
62928;BME280;51070;52.236;-0.892;2023-04-23T05:15:41;99051.73;;;10.03;100.00
62928;BME280;51070;52.236;-0.892;2023-04-23T05:18:09;99056.38;;;10.01;100.00
62928;BME280;51070;52.236;-0.892;2023-04-23T05:20:35;99058.45;;;10.02;100.00
62928;BME280;51070;52.236;-0.892;2023-04-23T05:23:01;99062.45;;;10.04;100.00
62928;BME280;51070;52.236;-0.892;2023-04-23T05:25:28;99063.84;;;10.06;100.00
62928;BME280;51070;52.236;-0.892;2023-04-23T05:27:54;99068.88;;;10.09;100.00
62928;BME280;51070;52.236;-0.892;2023-04-23T05:30:21;99067.66;;;10.08;100.00
62928;BME280;51070;52.236;-0.892;2023-04-23T05:32:48;99067.49;;;10.09;100.00
62928;BME280;51070;52.236;-0.892;2023-04-23T05:35:14;99071.11;;;10.10;100.00
62928;BME280;51070;52.236;-0.892;2023-04-23T05:37:40;99073.91;;;10.14;100.00
62928;BME280;51070;52.236;-0.892;2023-04-23T05:40:07;99079.79;;;10.15;100.00
62928;BME280;51070;52.236;-0.892;2023-04-23T05:42:34;99079.63;;;10.16;100.00
62928;BME280;51070;52.236;-0.892;2023-04-23T05:45:01;99081.74;;;10.18;100.00
62928;BME280;51070;52.236;-0.892;2023-04-23T05:47:27;99081.08;;;10.23;100.00
62928;BME280;51070;52.236;-0.892;2023-04-23T05:49:53;99083.19;;;10.28;100.00
62928;BME280;51070;52.236;-0.892;2023-04-23T05:52:18;99082.35;;;10.29;100.00
62928;BME280;51070;52.236;-0.892;2023-04-23T05:54:44;99084.95;;;10.30;100.00
62928;BME280;51070;52.236;-0.892;2023-04-23T05:57:10;99089.61;;;10.31;100.00
62928;BME280;51070;52.236;-0.892;2023-04-23T05:59:36;99095.13;;;10.31;100.00
62928;BME280;51070;52.236;-0.892;2023-04-23T06:02:02;99098.91;;;10.31;100.00
62928;BME280;51070;52.236;-0.892;2023-04-23T06:04:27;99099.80;;;10.30;100.00
62928;BME280;51070;52.236;-0.892;2023-04-23T06:06:53;99098.58;;;10.29;100.00
62928;BME280;51070;52.236;-0.892;2023-04-23T06:09:18;99096.16;;;10.29;100.00
62928;BME280;51070;52.236;-0.892;2023-04-23T06:11:44;99098.59;;;10.32;100.00
62928;BME280;51070;52.236;-0.892;2023-04-23T06:14:10;99102.23;;;10.33;100.00
62928;BME280;51070;52.236;-0.892;2023-04-23T06:16:35;99104.80;;;10.32;100.00
62928;BME280;51070;52.236;-0.892;2023-04-23T06:19:02;99107.22;;;10.32;100.00
62928;BME280;51070;52.236;-0.892;2023-04-23T06:21:27;99105.64;;;10.28;100.00
62928;BME280;51070;52.236;-0.892;2023-04-23T06:23:53;99102.68;;;10.26;100.00
62928;BME280;51070;52.236;-0.892;2023-04-23T06:26:19;99097.17;;;10.27;100.00
62928;BME280;51070;52.236;-0.892;2023-04-23T06:28:45;99095.98;;;10.31;100.00
62928;BME280;51070;52.236;-0.892;2023-04-23T06:31:11;99103.44;;;10.34;100.00
62928;BME280;51070;52.236;-0.892;2023-04-23T06:33:37;99103.77;;;10.33;100.00
62928;BME280;51070;52.236;-0.892;2023-04-23T06:36:03;99103.95;;;10.31;100.00
62928;BME280;51070;52.236;-0.892;2023-04-23T06:38:29;99102.73;;;10.32;100.00
62928;BME280;51070;52.236;-0.892;2023-04-23T06:40:55;99103.77;;;10.32;100.00
62928;BME280;51070;52.236;-0.892;2023-04-23T06:43:20;99101.22;;;10.36;100.00
62928;BME280;51070;52.236;-0.892;2023-04-23T06:45:46;99102.45;;;10.41;100.00
62928;BME280;51070;52.236;-0.892;2023-04-23T06:48:11;99106.80;;;10.45;100.00
62928;BME280;51070;52.236;-0.892;2023-04-23T06:50:37;99103.75;;;10.53;100.00
62928;BME280;51070;52.236;-0.892;2023-04-23T06:53:04;99105.89;;;10.65;100.00
62928;BME280;51070;52.236;-0.892;2023-04-23T06:55:29;99105.61;;;10.75;99.87
62928;BME280;51070;52.236;-0.892;2023-04-23T06:57:56;99108.84;;;10.95;99.36
62928;BME280;51070;52.236;-0.892;2023-04-23T07:00:22;99098.77;;;11.28;98.67
62928;BME280;51070;52.236;-0.892;2023-04-23T07:02:48;99097.50;;;11.67;96.47
62928;BME280;51070;52.236;-0.892;2023-04-23T07:05:15;99098.61;;;12.00;94.88
62928;BME280;51070;52.236;-0.892;2023-04-23T07:07:40;99101.20;;;12.42;93.42
62928;BME280;51070;52.236;-0.892;2023-04-23T07:10:09;99100.66;;;12.57;91.64
62928;BME280;51070;52.236;-0.892;2023-04-23T07:12:36;99104.98;;;12.58;91.05
62928;BME280;51070;52.236;-0.892;2023-04-23T07:15:02;99103.44;;;12.50;90.50
62928;BME280;51070;52.236;-0.892;2023-04-23T07:17:28;99107.27;;;12.41;89.97
62928;BME280;51070;52.236;-0.892;2023-04-23T07:19:53;99103.62;;;12.37;89.13
62928;BME280;51070;52.236;-0.892;2023-04-23T07:22:19;99105.02;;;12.40;89.26
62928;BME280;51070;52.236;-0.892;2023-04-23T07:24:44;99108.82;;;12.40;88.96
62928;BME280;51070;52.236;-0.892;2023-04-23T07:27:09;99106.39;;;12.37;88.76
62928;BME280;51070;52.236;-0.892;2023-04-23T07:29:35;99109.85;;;12.37;88.06
62928;BME280;51070;52.236;-0.892;2023-04-23T07:32:00;99110.38;;;12.38;87.56
62928;BME280;51070;52.236;-0.892;2023-04-23T07:34:26;99111.24;;;12.45;87.67
62928;BME280;51070;52.236;-0.892;2023-04-23T07:36:51;99117.99;;;12.49;86.43
62928;BME280;51070;52.236;-0.892;2023-04-23T07:39:17;99113.85;;;12.47;86.41
62928;BME280;51070;52.236;-0.892;2023-04-23T07:41:42;99113.14;;;12.48;86.69
62928;BME280;51070;52.236;-0.892;2023-04-23T07:44:08;99116.95;;;12.54;85.41
62928;BME280;51070;52.236;-0.892;2023-04-23T07:46:33;99125.95;;;12.63;85.26
62928;BME280;51070;52.236;-0.892;2023-04-23T07:48:58;99131.48;;;12.65;84.61
62928;BME280;51070;52.236;-0.892;2023-04-23T07:51:24;99131.82;;;12.79;83.67
62928;BME280;51070;52.236;-0.892;2023-04-23T07:53:54;99131.92;;;13.05;81.95
62928;BME280;51070;52.236;-0.892;2023-04-23T07:56:21;99130.13;;;13.28;80.56
62928;BME280;51070;52.236;-0.892;2023-04-23T07:58:47;99131.39;;;13.57;79.03
62928;BME280;51070;52.236;-0.892;2023-04-23T08:01:13;99136.13;;;13.79;78.10
62928;BME280;51070;52.236;-0.892;2023-04-23T08:03:38;99130.44;;;14.01;76.39
62928;BME280;51070;52.236;-0.892;2023-04-23T08:06:05;99133.65;;;14.55;74.79
62928;BME280;51070;52.236;-0.892;2023-04-23T08:08:30;99130.59;;;15.84;70.68
62928;BME280;51070;52.236;-0.892;2023-04-23T08:10:56;99126.47;;;17.25;67.29
62928;BME280;51070;52.236;-0.892;2023-04-23T08:13:22;99130.80;;;18.79;63.61
62928;BME280;51070;52.236;-0.892;2023-04-23T08:15:47;99128.20;;;19.42;60.53
62928;BME280;51070;52.236;-0.892;2023-04-23T08:18:14;99127.02;;;20.43;57.07
62928;BME280;51070;52.236;-0.892;2023-04-23T08:20:40;99127.23;;;21.48;53.22
62928;BME280;51070;52.236;-0.892;2023-04-23T08:23:05;99130.79;;;21.13;50.65
62928;BME280;51070;52.236;-0.892;2023-04-23T08:25:31;99135.29;;;21.05;51.10
62928;BME280;51070;52.236;-0.892;2023-04-23T08:27:57;99137.02;;;21.35;50.66
62928;BME280;51070;52.236;-0.892;2023-04-23T08:30:23;99140.97;;;20.88;51.06
62928;BME280;51070;52.236;-0.892;2023-04-23T08:32:50;99142.35;;;20.24;51.28
62928;BME280;51070;52.236;-0.892;2023-04-23T08:35:18;99140.46;;;20.01;51.75
62928;BME280;51070;52.236;-0.892;2023-04-23T08:37:44;99143.34;;;20.85;50.08
62928;BME280;51070;52.236;-0.892;2023-04-23T08:40:10;99145.21;;;22.41;48.02
62928;BME280;51070;52.236;-0.892;2023-04-23T08:42:53;99147.71;;;23.03;46.65
62928;BME280;51070;52.236;-0.892;2023-04-23T08:45:22;99141.66;;;22.29;46.73
62928;BME280;51070;52.236;-0.892;2023-04-23T08:47:47;99142.80;;;21.64;46.63
62928;BME280;51070;52.236;-0.892;2023-04-23T08:50:16;99138.95;;;22.09;46.65
62928;BME280;51070;52.236;-0.892;2023-04-23T08:52:46;99132.34;;;23.70;44.73
62928;BME280;51070;52.236;-0.892;2023-04-23T08:55:14;99132.52;;;25.08;39.08
62928;BME280;51070;52.236;-0.892;2023-04-23T08:57:41;99130.40;;;25.38;36.63
62928;BME280;51070;52.236;-0.892;2023-04-23T09:00:11;99136.50;;;24.85;38.52
62928;BME280;51070;52.236;-0.892;2023-04-23T09:02:42;99142.05;;;24.90;38.76
62928;BME280;51070;52.236;-0.892;2023-04-23T09:05:08;99150.65;;;23.32;40.68
62928;BME280;51070;52.236;-0.892;2023-04-23T09:07:34;99147.48;;;22.11;42.85
62928;BME280;51070;52.236;-0.892;2023-04-23T09:10:01;99147.51;;;21.06;43.55
62928;BME280;51070;52.236;-0.892;2023-04-23T09:12:27;99145.21;;;20.07;45.12
62928;BME280;51070;52.236;-0.892;2023-04-23T09:14:53;99151.39;;;19.21;46.60
62928;BME280;51070;52.236;-0.892;2023-04-23T09:17:20;99157.47;;;19.09;47.34
62928;BME280;51070;52.236;-0.892;2023-04-23T09:19:46;99145.03;;;21.30;45.25
62928;BME280;51070;52.236;-0.892;2023-04-23T09:22:13;99139.71;;;23.47;42.88
62928;BME280;51070;52.236;-0.892;2023-04-23T09:24:41;99142.23;;;24.62;40.92
62928;BME280;51070;52.236;-0.892;2023-04-23T09:27:10;99139.52;;;24.06;39.12
62928;BME280;51070;52.236;-0.892;2023-04-23T09:29:35;99148.38;;;23.28;40.42
62928;BME280;51070;52.236;-0.892;2023-04-23T09:32:08;99148.59;;;22.41;40.41
62928;BME280;51070;52.236;-0.892;2023-04-23T09:34:35;99142.27;;;21.63;41.46
62928;BME280;51070;52.236;-0.892;2023-04-23T09:37:05;99147.32;;;22.62;40.82
62928;BME280;51070;52.236;-0.892;2023-04-23T09:39:35;99142.25;;;23.86;39.19
62928;BME280;51070;52.236;-0.892;2023-04-23T09:42:04;99142.18;;;24.84;37.70
62928;BME280;51070;52.236;-0.892;2023-04-23T09:44:33;99138.25;;;25.95;35.84
62928;BME280;51070;52.236;-0.892;2023-04-23T09:47:08;99135.81;;;25.91;36.04
62928;BME280;51070;52.236;-0.892;2023-04-23T09:49:47;99133.98;;;25.89;35.50
62928;BME280;51070;52.236;-0.892;2023-04-23T09:52:13;99127.02;;;24.87;35.52
62928;BME280;51070;52.236;-0.892;2023-04-23T09:54:38;99133.45;;;23.81;36.55
62928;BME280;51070;52.236;-0.892;2023-04-23T09:57:04;99139.81;;;22.65;38.22
62928;BME280;51070;52.236;-0.892;2023-04-23T09:59:33;99136.23;;;21.65;39.84
62928;BME280;51070;52.236;-0.892;2023-04-23T10:02:02;99143.18;;;20.79;41.20
62928;BME280;51070;52.236;-0.892;2023-04-23T10:04:28;99141.58;;;20.05;41.87
62928;BME280;51070;52.236;-0.892;2023-04-23T10:06:58;99139.89;;;20.30;41.88
62928;BME280;51070;52.236;-0.892;2023-04-23T10:09:25;99132.45;;;21.35;40.08
62928;BME280;51070;52.236;-0.892;2023-04-23T10:11:53;99131.86;;;22.66;39.29
62928;BME280;51070;52.236;-0.892;2023-04-23T10:14:20;99124.31;;;23.96;37.34
62928;BME280;51070;52.236;-0.892;2023-04-23T10:16:46;99123.25;;;25.05;36.29
62928;BME280;51070;52.236;-0.892;2023-04-23T10:19:18;99124.60;;;26.11;35.50
62928;BME280;51070;52.236;-0.892;2023-04-23T10:21:50;99130.52;;;26.59;34.64
62928;BME280;51070;52.236;-0.892;2023-04-23T10:24:19;99125.95;;;25.96;34.33
62928;BME280;51070;52.236;-0.892;2023-04-23T10:26:48;99123.90;;;25.07;34.47
62928;BME280;51070;52.236;-0.892;2023-04-23T10:29:16;99123.89;;;24.08;35.31
62928;BME280;51070;52.236;-0.892;2023-04-23T10:31:44;99130.98;;;23.39;36.14
62928;BME280;51070;52.236;-0.892;2023-04-23T10:34:10;99131.11;;;22.72;36.53
62928;BME280;51070;52.236;-0.892;2023-04-23T10:36:37;99131.73;;;22.18;37.13
62928;BME280;51070;52.236;-0.892;2023-04-23T10:39:03;99127.05;;;21.48;38.00
62928;BME280;51070;52.236;-0.892;2023-04-23T10:41:37;99125.40;;;21.49;38.76
62928;BME280;51070;52.236;-0.892;2023-04-23T10:44:04;99124.91;;;22.39;37.88
62928;BME280;51070;52.236;-0.892;2023-04-23T10:46:31;99120.82;;;23.18;36.88
62928;BME280;51070;52.236;-0.892;2023-04-23T10:49:10;99115.57;;;23.83;36.60
62928;BME280;51070;52.236;-0.892;2023-04-23T10:51:41;99110.48;;;24.19;36.15
62928;BME280;51070;52.236;-0.892;2023-04-23T10:54:08;99109.98;;;23.59;35.87
62928;BME280;51070;52.236;-0.892;2023-04-23T10:56:39;99104.84;;;23.52;35.15
62928;BME280;51070;52.236;-0.892;2023-04-23T10:59:38;99106.73;;;23.91;35.35
62928;BME280;51070;52.236;-0.892;2023-04-23T11:02:09;99106.43;;;23.67;35.28
62928;BME280;51070;52.236;-0.892;2023-04-23T11:04:57;99106.59;;;23.64;35.78
62928;BME280;51070;52.236;-0.892;2023-04-23T11:07:29;99106.77;;;23.64;35.88
62928;BME280;51070;52.236;-0.892;2023-04-23T11:09:58;99102.30;;;23.50;35.80
62928;BME280;51070;52.236;-0.892;2023-04-23T11:12:32;99103.30;;;23.08;35.94
62928;BME280;51070;52.236;-0.892;2023-04-23T11:14:58;99106.19;;;22.83;35.51
62928;BME280;51070;52.236;-0.892;2023-04-23T11:20:12;99107.02;;;22.24;35.96
62928;BME280;51070;52.236;-0.892;2023-04-23T11:22:40;99109.40;;;22.23;36.20
62928;BME280;51070;52.236;-0.892;2023-04-23T11:25:12;99106.90;;;22.23;36.48
62928;BME280;51070;52.236;-0.892;2023-04-23T11:27:42;99107.89;;;22.25;35.43
62928;BME280;51070;52.236;-0.892;2023-04-23T11:30:13;99106.98;;;22.21;35.72
62928;BME280;51070;52.236;-0.892;2023-04-23T11:32:40;99112.02;;;21.87;36.31
62928;BME280;51070;52.236;-0.892;2023-04-23T11:35:07;99107.31;;;21.58;37.58
62928;BME280;51070;52.236;-0.892;2023-04-23T11:37:38;99102.83;;;21.28;38.79
62928;BME280;51070;52.236;-0.892;2023-04-23T11:40:06;99105.90;;;21.11;39.41
62928;BME280;51070;52.236;-0.892;2023-04-23T11:42:42;99112.35;;;20.93;39.06
62928;BME280;51070;52.236;-0.892;2023-04-23T11:45:22;99114.16;;;20.61;39.78
62928;BME280;51070;52.236;-0.892;2023-04-23T11:47:49;99119.19;;;20.20;40.14
62928;BME280;51070;52.236;-0.892;2023-04-23T11:50:19;99113.98;;;20.01;40.97
62928;BME280;51070;52.236;-0.892;2023-04-23T11:52:45;99116.67;;;19.77;41.27
62928;BME280;51070;52.236;-0.892;2023-04-23T11:55:11;99120.98;;;19.57;41.13
62928;BME280;51070;52.236;-0.892;2023-04-23T11:57:46;99115.73;;;19.68;40.59
62928;BME280;51070;52.236;-0.892;2023-04-23T12:00:14;99111.46;;;19.92;40.40
62928;BME280;51070;52.236;-0.892;2023-04-23T12:02:54;99115.95;;;20.27;40.68
62928;BME280;51070;52.236;-0.892;2023-04-23T12:05:22;99118.59;;;20.60;40.16
62928;BME280;51070;52.236;-0.892;2023-04-23T12:07:49;99116.46;;;20.61;39.42
62928;BME280;51070;52.236;-0.892;2023-04-23T12:10:17;99121.27;;;20.37;38.83
62928;BME280;51070;52.236;-0.892;2023-04-23T12:12:43;99116.84;;;20.11;37.97
62928;BME280;51070;52.236;-0.892;2023-04-23T12:15:09;99115.23;;;19.84;38.19
62928;BME280;51070;52.236;-0.892;2023-04-23T12:17:35;99115.52;;;19.57;38.85
62928;BME280;51070;52.236;-0.892;2023-04-23T12:20:03;99116.86;;;19.35;39.20
62928;BME280;51070;52.236;-0.892;2023-04-23T12:22:31;99117.32;;;19.06;39.61
62928;BME280;51070;52.236;-0.892;2023-04-23T12:24:56;99118.91;;;18.80;40.31
62928;BME280;51070;52.236;-0.892;2023-04-23T12:27:22;99119.39;;;18.54;40.95
62928;BME280;51070;52.236;-0.892;2023-04-23T12:29:48;99115.80;;;18.36;41.89
62928;BME280;51070;52.236;-0.892;2023-04-23T12:32:15;99115.55;;;18.25;42.58
62928;BME280;51070;52.236;-0.892;2023-04-23T12:34:55;99119.36;;;18.05;43.29
62928;BME280;51070;52.236;-0.892;2023-04-23T12:37:24;99119.39;;;17.80;43.00
62928;BME280;51070;52.236;-0.892;2023-04-23T12:39:53;99122.18;;;17.65;43.57
62928;BME280;51070;52.236;-0.892;2023-04-23T12:42:21;99121.34;;;17.54;44.47
62928;BME280;51070;52.236;-0.892;2023-04-23T12:44:46;99117.70;;;17.53;45.11
62928;BME280;51070;52.236;-0.892;2023-04-23T12:47:12;99118.14;;;17.56;45.03
62928;BME280;51070;52.236;-0.892;2023-04-23T12:49:42;99115.63;;;17.77;45.20